Irwin, Idaho
Current Conditions -  °F | °C
As of 7:56 PM on Wednesday 22 Oct 2014 (Local Time) from KDIJ Reporting Station
Clear Clear  
Wind Chill: 30°   Ceiling: Unl
Heat Index: 36°   Visibility: 10mi
Dew Point: 28°   Wind: 7mph
Humidity: 73%   Direction: 180°S
Pressure: 30.22"   Gusts: NA
Location:  43.41°N, 111.3°W
Report Text: KDIJ 230156Z AUTO 18006KT 10SM CLR 02/M02 A3022 RMK AO2 T00221022 SLP228
Loading
Personal Weather Stations






























Interactive Weather Map
Tropical Storm Tracking
New forecast layout! Learn more

10-Day Weather Forecast

Advertisements
Track Severe Weather on mobile